Latest Weather Observations for Carnarvon

IDW60801

Issued at 4:17 pm WST Saturday 18 April 2015 (issued every 30 minutes, with the page automatically refreshed every 10 minutes)

About weather observations | Map of weather stations | Latest weather observations for WA | Other Formats
Station Details ID: 006011 Name: CARNARVON AIRPORT Lat: -24.89 Lon: 113.67 Height: 4.0 m
Data from the previous 72 hours. | See also: Recent months at Carnarvon
Date/Time
WST
Temp
°C
App
Temp
°C
Dew
Point
Rel
Hum
%
Delta-T
°C
Wind Press
QNH
hPa
Press
MSL
hPa
Rain
since 9 am
mm
Dir
 
Spd
km/h
Gust
km/h
Spd
kts
Gust
kts
18/04:00pm 28.2 28.7 17.4 52 6.8 ENE 11 19 6 10 1014.6 - 0.0
18/03:30pm 28.4 29.3 17.5 51 6.9 NE 9 17 5 9 1014.4 - 0.0
18/03:00pm 28.2 29.1 17.6 52 6.7 NE 9 19 5 10 1014.5 1014.5 0.0
18/02:30pm 27.9 27.5 17.2 52 6.7 NE 15 20 8 11 1014.8 - 0.0
18/02:00pm 28.0 27.8 17.5 52 6.6 NE 15 19 8 10 1015.0 - 0.0
18/01:30pm 27.7 27.7 17.3 53 6.5 NE 13 19 7 10 1015.1 - 0.0
18/01:00pm 28.2 27.4 17.2 51 6.9 NNE 17 24 9 13 1015.4 - 0.0
18/12:30pm 27.4 26.1 17.2 53 6.4 NNE 20 26 11 14 1016.0 - 0.0
18/12:00pm 27.7 26.7 17.9 55 6.2 NNE 20 30 11 16 1016.3 1016.3 0.0
18/11:30am 27.0 25.9 17.8 57 5.8 NNE 20 30 11 16 1016.2 - 0.0
18/11:00am 27.3 26.3 18.0 56 5.9 NNE 20 30 11 16 1016.5 - 0.0
18/10:30am 26.2 25.2 17.9 60 5.2 NNE 20 28 11 15 1016.6 - 0.0
18/10:00am 26.2 25.3 18.1 61 5.1 N 20 24 11 13 1016.7 - 0.0
18/09:30am 25.2 24.9 18.2 65 4.4 N 17 20 9 11 1016.7 - 0.0
18/09:00am 24.4 23.6 18.4 69 3.8 N 20 24 11 13 1016.4 1016.4 0.0
18/08:30am 23.9 23.1 18.5 72 3.4 N 20 28 11 15 1015.9 - 0.0
18/08:00am 22.9 23.2 18.8 77 2.6 N 15 20 8 11 1015.7 - 0.0
18/07:30am 22.1 22.3 17.6 75 2.8 N 13 17 7 9 1015.5 - 0.0
18/07:00am 21.0 21.8 17.2 79 2.3 NNE 9 11 5 6 1015.0 - 0.0
18/06:30am 20.9 21.9 16.8 77 2.5 ENE 7 9 4 5 1014.7 - 0.0
18/06:00am 21.0 21.6 16.7 76 2.6 E 9 13 5 7 1014.4 1014.4 0.0
18/05:30am 21.0 21.6 16.9 77 2.5 E 9 13 5 7 1014.2 - 0.0
18/05:00am 21.4 21.7 17.0 76 2.7 SE 11 13 6 7 1014.1 - 0.0
18/04:30am 21.3 22.1 17.2 77 2.5 ESE 9 11 5 6 1013.8 - 0.0
18/04:00am 21.1 21.7 17.7 81 2.1 ESE 11 13 6 7 1013.9 - 0.0
18/03:30am 21.3 22.4 17.9 81 2.1 ESE 9 9 5 5 1014.0 - 0.0
18/03:00am 21.8 22.9 18.1 79 2.3 SE 9 11 5 6 1014.2 1014.2 0.0
18/02:30am 22.1 23.0 18.3 79 2.4 SE 11 13 6 7 1014.3 - 0.0
18/02:00am 22.3 22.9 18.5 79 2.4 SSE 13 15 7 8 1014.6 - 0.0
18/01:30am 22.4 23.0 18.6 79 2.4 SE 13 17 7 9 1014.5 - 0.0
18/01:00am 22.6 22.6 19.0 80 2.3 SSE 17 20 9 11 1014.7 - 0.0
18/12:30am 22.7 23.1 19.1 80 2.3 SSE 15 19 8 10 1014.9 - 0.0
18/12:00am 22.9 23.3 19.0 78 2.5 SSE 15 19 8 10 1014.9 1014.9 0.0
 
Date/Time
WST
Temp
°C
App
Temp
°C
Dew
Point
Rel
Hum
%
Delta-T
°C
Wind Press
QNH
hPa
Press
MSL
hPa
Rain
since 9 am
mm
Dir
 
Spd
km/h
Gust
km/h
Spd
kts
Gust
kts
17/11:30pm 23.3 23.3 18.9 76 2.8 SSE 17 24 9 13 1015.3 - 0.0
17/11:00pm 23.4 23.0 19.0 76 2.8 SSE 19 24 10 13 1015.4 - 0.0
17/10:30pm 23.5 22.7 18.4 73 3.2 SSE 20 28 11 15 1015.5 - 0.0
17/10:00pm 23.7 22.8 18.1 71 3.5 SSE 20 30 11 16 1015.4 - 0.0
17/09:30pm 24.1 23.0 18.7 72 3.4 SSE 22 32 12 17 1015.4 - 0.0
17/09:00pm 24.4 23.1 17.3 64 4.4 SSE 20 26 11 14 1015.5 1015.5 0.0
17/08:30pm 24.8 23.0 15.9 57 5.4 SSE 20 26 11 14 1015.3 - 0.0
17/08:00pm 24.9 23.4 16.2 58 5.3 SSE 19 24 10 13 1015.2 - 0.0
17/07:30pm 24.9 23.5 16.6 60 5.1 SSE 19 24 10 13 1015.0 - 0.0
17/07:00pm 25.0 23.5 16.3 58 5.3 SSE 19 24 10 13 1014.9 - 0.0
17/06:30pm 25.2 24.3 16.8 59 5.2 S 17 22 9 12 1014.7 - 0.0
17/06:00pm 25.7 24.4 16.8 58 5.5 S 19 26 10 14 1014.2 1014.2 0.0
17/05:30pm 26.5 25.2 16.8 55 6.0 S 19 24 10 13 1014.0 - 0.0
17/05:00pm 26.5 25.9 18.5 61 5.1 S 19 24 10 13 1013.9 - 0.0
17/04:30pm 26.5 25.6 19.0 63 4.8 S 22 28 12 15 1014.0 - 0.0
17/04:00pm 26.8 25.9 19.0 62 5.0 S 22 28 12 15 1013.9 - 0.0
17/03:30pm 27.3 25.8 18.5 58 5.6 S 24 28 13 15 1014.0 - 0.0
17/03:00pm 27.0 25.2 17.8 57 5.8 SSW 24 33 13 18 1014.0 1014.0 0.0
17/02:30pm 27.3 26.0 18.2 57 5.8 SSW 22 28 12 15 1014.1 - 0.0
17/02:00pm 27.6 26.8 18.0 55 6.1 SSW 19 24 10 13 1014.3 - 0.0
17/01:30pm 30.5 30.3 14.8 38 9.6 SE 9 19 5 10 1014.7 - 0.0
17/01:00pm 30.2 28.7 14.3 38 9.6 ENE 15 22 8 12 1015.0 - 0.0
17/12:30pm 29.3 27.7 14.0 39 9.2 E 15 24 8 13 1015.3 - 0.0
17/12:00pm 29.0 26.6 13.8 39 9.1 E 19 24 10 13 1015.6 1015.6 0.0
17/11:30am 28.7 26.1 13.8 40 8.9 E 20 28 11 15 1016.1 - 0.0
17/11:00am 28.6 25.6 13.6 39 8.9 E 22 28 12 15 1016.5 - 0.0
17/10:30am 28.4 25.0 13.8 40 8.7 E 24 32 13 17 1016.8 - 0.0
17/10:00am 27.0 22.7 13.2 42 8.1 E 28 35 15 19 1016.9 - 0.0
17/09:30am 25.7 20.9 13.0 45 7.4 E 30 41 16 22 1017.1 - 0.0
17/09:00am 24.3 19.4 12.6 48 6.7 ESE 30 39 16 21 1017.3 1017.3 0.0
17/08:30am 23.1 19.0 12.6 51 6.0 ESE 26 35 14 19 1017.5 - 0.0
17/08:00am 21.7 18.7 12.7 56 5.1 SE 20 26 11 14 1017.6 - 0.0
17/07:30am 20.9 18.5 12.8 60 4.6 SE 17 20 9 11 1017.3 - 0.0
17/07:00am 20.3 17.9 12.7 61 4.3 SE 17 20 9 11 1017.2 - 0.0
17/06:30am 20.7 18.3 12.5 59 4.6 SE 17 20 9 11 1017.0 - 0.0
17/06:00am 20.7 18.3 12.5 59 4.6 SE 17 20 9 11 1017.0 1017.0 0.0
17/05:30am 20.9 18.4 12.4 58 4.8 SE 17 20 9 11 1016.7 - 0.0
17/05:00am 20.7 18.3 12.5 59 4.6 SE 17 19 9 10 1016.4 - 0.0
17/04:30am 20.7 18.7 12.7 60 4.5 ESE 15 19 8 10 1016.4 - 0.0
17/04:00am 21.1 18.6 12.4 57 4.9 ESE 17 20 9 11 1016.3 - 0.0
17/03:30am 21.3 18.8 12.4 57 5.0 ESE 17 24 9 13 1016.3 - 0.0
17/03:00am 21.6 19.1 12.4 55 5.2 ESE 17 22 9 12 1016.4 1016.4 0.0
17/02:30am 21.9 19.0 12.3 54 5.4 ESE 19 24 10 13 1016.7 - 0.0
17/02:00am 22.5 19.0 12.2 52 5.8 ESE 22 28 12 15 1016.8 - 0.0
17/01:30am 23.0 19.8 12.0 50 6.2 ESE 20 28 11 15 1016.9 - 0.0
17/01:00am 23.3 19.7 12.0 49 6.4 ESE 22 32 12 17 1017.2 - 0.0
17/12:30am 23.8 20.1 11.5 46 6.9 ESE 22 30 12 16 1017.2 - 0.0
17/12:00am 23.9 20.2 11.6 46 6.9 ESE 22 28 12 15 1017.3 1017.3 0.0
 
Date/Time
WST
Temp
°C
App
Temp
°C
Dew
Point
Rel
Hum
%
Delta-T
°C
Wind Press
QNH
hPa
Press
MSL
hPa
Rain
since 9 am
mm
Dir
 
Spd
km/h
Gust
km/h
Spd
kts
Gust
kts
16/11:30pm 22.7 20.4 11.6 49 6.2 SE 15 19 8 10 1017.5 - 0.0
16/11:00pm 22.1 20.3 12.2 53 5.6 SSE 13 17 7 9 1017.7 - 0.0
16/10:30pm 22.7 20.9 12.1 51 6.0 SE 13 15 7 8 1018.0 - 0.0
16/10:00pm 23.4 20.7 11.6 47 6.6 SE 17 20 9 11 1018.0 - 0.0
16/09:30pm 22.5 20.9 12.9 54 5.5 SE 13 15 7 8 1018.1 - 0.0
16/09:00pm 22.9 21.5 13.4 55 5.5 SSE 13 15 7 8 1018.2 1018.2 0.0
16/08:30pm 23.4 22.3 14.4 57 5.3 SSE 13 15 7 8 1018.3 - 0.0
16/08:00pm 23.7 22.7 15.7 61 4.8 S 15 17 8 9 1018.2 - 0.0
16/07:30pm 23.7 23.6 16.9 65 4.2 S 13 15 7 8 1017.9 - 0.0
16/07:00pm 24.2 24.1 16.9 63 4.5 S 13 15 7 8 1017.5 - 0.0
16/06:30pm 24.7 24.1 16.7 61 4.9 S 15 20 8 11 1017.2 - 0.0
16/06:00pm 25.3 23.8 16.3 57 5.5 S 19 26 10 14 1016.9 1016.9 0.0
16/05:30pm 25.5 23.3 16.9 59 5.3 S 24 32 13 17 1016.6 - 0.0
16/05:00pm 25.9 22.7 17.2 58 5.4 S 30 39 16 21 1016.5 - 0.0
16/04:30pm 27.3 23.3 15.1 47 7.4 S 30 41 16 22 1016.4 - 0.0
16/04:00pm 28.2 23.9 14.4 42 8.3 S 30 39 16 21 1016.1 - 0.0
16/03:30pm 27.5 22.5 14.1 43 8.0 S 33 43 18 23 1016.2 - 0.0
16/03:00pm 27.2 22.0 14.5 45 7.6 S 35 44 19 24 1016.8 1016.8 0.0
16/02:30pm 27.0 22.9 15.9 50 6.8 S 32 41 17 22 1016.8 - 0.0
16/02:00pm 26.5 22.5 16.6 54 6.1 S 33 43 18 23 1017.1 - 0.0
16/01:30pm 26.1 22.9 16.3 54 6.0 S 28 35 15 19 1017.6 - 0.0
16/01:00pm 28.1 23.3 11.8 36 9.4 SE 28 37 15 20 1017.8 - 0.0
16/12:30pm 27.9 23.3 12.2 37 9.1 SE 28 39 15 21 1018.3 - 0.0
16/12:00pm 27.2 22.7 12.6 40 8.5 SE 28 39 15 21 1018.9 1018.9 0.0
16/11:30am 26.9 22.4 12.6 41 8.3 SSE 28 37 15 20 1019.4 - 0.0
16/11:00am 26.5 22.4 12.7 42 8.0 SE 26 35 14 19 1020.0 - 0.0
16/10:30am 25.5 21.0 12.7 45 7.4 ESE 28 39 15 21 1020.2 - 0.0
16/10:00am 25.2 20.7 12.7 45 7.2 ESE 28 39 15 21 1020.4 - 0.0
16/09:30am 23.9 19.0 12.5 49 6.5 ESE 30 35 16 19 1020.7 - 0.0
16/09:00am 23.1 18.1 12.3 50 6.1 ESE 30 39 16 21 1020.8 1020.8 0.0
16/08:30am 22.3 17.6 12.0 52 5.8 ESE 28 37 15 20 1020.5 - 0.0
16/08:00am 21.6 17.5 11.5 52 5.6 SE 24 37 13 20 1020.2 - 0.0
16/07:30am 20.6 16.8 11.1 54 5.2 SE 22 28 12 15 1019.9 - 0.0
16/07:00am 19.6 16.0 10.7 56 4.8 SE 20 28 11 15 1019.6 - 0.0
16/06:30am 19.5 15.5 10.6 56 4.8 SE 22 26 12 14 1019.3 - 0.0
16/06:00am 19.8 16.2 10.5 55 5.0 SE 20 24 11 13 1019.2 1019.2 0.0
16/05:30am 20.2 16.2 10.4 53 5.3 SE 22 28 12 15 1018.8 - 0.0
16/05:00am 20.4 16.4 10.4 52 5.4 SE 22 28 12 15 1018.6 - 0.0
16/04:30am 20.6 16.2 10.4 52 5.5 SE 24 32 13 17 1018.3 - 0.0
16/04:00am 20.5 17.0 10.8 53 5.3 SE 20 28 11 15 1018.3 - 0.0
16/03:30am 20.5 16.8 11.4 56 5.0 SE 22 28 12 15 1018.2 - 0.0
16/03:00am 21.0 17.2 12.3 57 4.9 SSE 24 35 13 19 1018.1 1018.1 0.0
16/02:30am 21.5 17.5 14.1 62 4.3 SSE 28 37 15 20 1018.2 - 0.0
16/02:00am 21.8 18.8 15.8 68 3.6 SSE 26 35 14 19 1018.6 - 0.0
16/01:30am 22.2 19.1 15.7 66 3.9 SSE 26 33 14 18 1018.8 - 0.0
16/01:00am 22.4 19.0 15.7 66 4.0 SSE 28 35 15 19 1018.9 - 0.0
16/12:30am 22.8 18.7 13.9 57 5.2 SSE 28 37 15 20 1019.0 - 0.0
16/12:00am 22.8 19.2 15.2 62 4.5 S 28 33 15 18 1018.9 1018.9 0.0
 
Date/Time
WST
Temp
°C
App
Temp
°C
Dew
Point
Rel
Hum
%
Delta-T
°C
Wind Press
QNH
hPa
Press
MSL
hPa
Rain
since 9 am
mm
Dir
 
Spd
km/h
Gust
km/h
Spd
kts
Gust
kts
15/11:30pm 22.8 20.0 16.4 67 3.9 S 26 32 14 17 1018.8 - 0.0
15/11:00pm 22.9 20.4 17.2 70 3.5 S 26 32 14 17 1018.7 - 0.0
15/10:30pm 23.0 21.2 17.9 73 3.2 S 24 32 13 17 1018.8 - 0.0
15/10:00pm 23.1 20.9 17.8 72 3.3 S 26 33 14 18 1018.8 - 0.0
15/09:30pm 23.1 21.2 17.6 71 3.4 S 24 30 13 16 1018.8 - 0.0
15/09:00pm 23.2 21.0 17.9 72 3.3 S 26 37 14 20 1018.4 1018.4 0.0
15/08:30pm 23.3 20.7 17.7 71 3.5 S 28 33 15 18 1018.3 - 0.0
15/08:00pm 23.5 20.7 17.4 68 3.8 S 28 35 15 19 1017.8 - 0.0
15/07:30pm 23.7 21.5 17.9 70 3.6 S 26 35 14 19 1017.3 - 0.0
15/07:00pm 24.0 21.3 15.7 59 5.0 S 24 28 13 15 1016.9 - 0.0
15/06:30pm 24.2 21.1 14.6 55 5.7 S 24 30 13 16 1016.8 - 0.0
15/06:00pm 24.7 21.0 13.8 50 6.4 S 26 33 14 18 1016.5 1016.5 0.0
15/05:30pm 25.3 22.2 15.5 54 5.9 S 26 35 14 19 1016.4 - 0.0
15/05:00pm 26.1 21.3 13.9 47 7.2 S 32 43 17 23 1015.9 - 0.0
15/04:30pm 26.6 20.2 12.0 40 8.4 S 37 48 20 26 1015.6 - 0.0

Other Formats:

Comma delimited format used in spreadsheet applications
http://www.bom.gov.au/fwo/IDW60801/IDW60801.94300.axf

JavaScript Object Notation format (JSON) in row-major order
http://www.bom.gov.au/fwo/IDW60801/IDW60801.94300.json